createdAt,value
2023-11-07T00:02:01.651Z,8.35
2023-11-07T00:04:28.348Z,8.37
2023-11-07T00:06:54.867Z,8.36
2023-11-07T00:09:21.236Z,8.37
2023-11-07T00:11:47.672Z,8.34
2023-11-07T00:14:14.040Z,8.33
2023-11-07T00:16:40.392Z,8.34
2023-11-07T00:19:07.233Z,8.40
2023-11-07T00:21:34.794Z,8.35
2023-11-07T00:24:01.315Z,8.32
2023-11-07T00:26:28.048Z,8.37
2023-11-07T00:28:54.464Z,8.40
2023-11-07T00:31:20.856Z,8.39
2023-11-07T00:33:47.365Z,8.38
2023-11-07T00:36:14.199Z,8.33
2023-11-07T00:38:40.620Z,8.38
2023-11-07T00:41:07.984Z,8.39
2023-11-07T00:43:36.296Z,8.33
2023-11-07T00:46:04.640Z,8.34
2023-11-07T00:48:31.099Z,8.32
2023-11-07T00:50:57.822Z,8.31
2023-11-07T00:53:24.362Z,8.27
2023-11-07T00:55:51.143Z,8.19
2023-11-07T00:58:21.537Z,8.20
2023-11-07T01:00:47.837Z,8.17
2023-11-07T01:03:14.487Z,8.22
2023-11-07T01:05:41.153Z,8.24
2023-11-07T01:08:07.795Z,8.22
2023-11-07T01:10:34.186Z,8.24
2023-11-07T01:13:00.687Z,8.23
2023-11-07T01:15:27.375Z,8.20
2023-11-07T01:17:54.757Z,8.16
2023-11-07T01:20:21.373Z,8.16
2023-11-07T01:22:47.817Z,8.18
2023-11-07T01:25:14.318Z,8.23
2023-11-07T01:27:40.768Z,8.21
2023-11-07T01:30:08.385Z,8.19
2023-11-07T01:32:35.085Z,8.21
2023-11-07T01:35:01.452Z,8.18
2023-11-07T01:37:28.549Z,8.14
2023-11-07T01:39:55.001Z,8.16
2023-11-07T01:42:21.675Z,8.19
2023-11-07T01:44:52.813Z,8.23
2023-11-07T01:47:21.603Z,8.24
2023-11-07T01:49:49.095Z,8.17
2023-11-07T01:52:18.574Z,8.13
2023-11-07T01:54:45.936Z,8.13
2023-11-07T01:57:13.778Z,8.13
2023-11-07T01:59:41.332Z,8.07
2023-11-07T02:02:14.239Z,8.09
2023-11-07T02:04:41.497Z,8.08
2023-11-07T02:07:08.465Z,8.04
2023-11-07T02:09:34.955Z,8.03
2023-11-07T02:12:01.620Z,8.06
2023-11-07T02:14:35.095Z,8.05
2023-11-07T02:17:01.726Z,8.13
2023-11-07T02:19:28.289Z,8.05
2023-11-07T02:22:00.097Z,8.02
2023-11-07T02:24:30.264Z,8.03
2023-11-07T02:26:58.277Z,8.11
2023-11-07T02:29:24.915Z,8.10
2023-11-07T02:31:51.633Z,8.05
2023-11-07T02:34:18.948Z,8.11
2023-11-07T02:36:45.771Z,8.11
2023-11-07T02:39:13.930Z,8.14
2023-11-07T02:41:41.380Z,8.11
2023-11-07T02:44:07.861Z,8.09
2023-11-07T02:46:34.208Z,8.09
2023-11-07T02:49:00.715Z,8.09
2023-11-07T02:51:27.516Z,8.07
2023-11-07T02:53:54.366Z,8.04
2023-11-07T02:56:26.809Z,8.00
2023-11-07T02:58:56.490Z,8.07
2023-11-07T03:01:23.193Z,8.11
2023-11-07T03:03:56.285Z,8.05
2023-11-07T03:06:22.963Z,8.08
2023-11-07T03:08:49.632Z,8.05
2023-11-07T03:11:16.274Z,8.04
2023-11-07T03:13:42.644Z,7.99
2023-11-07T03:16:09.424Z,8.03
2023-11-07T03:18:35.931Z,8.01
2023-11-07T03:21:04.862Z,7.95
2023-11-07T03:23:31.351Z,7.96
2023-11-07T03:25:57.939Z,8.02
2023-11-07T03:28:25.144Z,8.01
2023-11-07T03:30:51.608Z,7.99
2023-11-07T03:33:18.648Z,8.01
2023-11-07T03:35:47.712Z,8.01
2023-11-07T03:38:14.914Z,8.02
2023-11-07T03:40:41.352Z,7.99
2023-11-07T03:43:08.932Z,8.03
2023-11-07T03:45:35.803Z,8.09
2023-11-07T03:48:02.520Z,8.11
2023-11-07T03:50:30.922Z,8.13
2023-11-07T03:52:57.675Z,8.10
2023-11-07T03:55:24.330Z,8.16
2023-11-07T03:57:50.879Z,8.10
2023-11-07T04:00:17.579Z,8.07
2023-11-07T04:02:44.062Z,8.06
2023-11-07T04:05:11.726Z,8.10
2023-11-07T04:07:38.323Z,8.10
2023-11-07T04:10:06.704Z,8.11
2023-11-07T04:12:36.656Z,8.12
2023-11-07T04:15:05.490Z,8.12
2023-11-07T04:17:31.963Z,8.14
2023-11-07T04:19:58.495Z,8.14
2023-11-07T04:22:25.208Z,8.10
2023-11-07T04:24:52.175Z,8.10
2023-11-07T04:27:18.902Z,8.17
2023-11-07T04:29:45.486Z,8.17
2023-11-07T04:32:13.347Z,8.24
2023-11-07T04:34:39.991Z,8.25
2023-11-07T04:37:06.796Z,8.25
2023-11-07T04:39:33.617Z,8.23
2023-11-07T04:42:00.302Z,8.27
2023-11-07T04:44:26.960Z,8.26
2023-11-07T04:46:53.828Z,8.31
2023-11-07T04:49:20.653Z,8.36
2023-11-07T04:51:47.742Z,8.34
2023-11-07T04:54:14.490Z,8.34
2023-11-07T04:56:41.217Z,8.31
2023-11-07T04:59:07.634Z,8.33
2023-11-07T05:01:33.964Z,8.33
2023-11-07T05:04:00.972Z,8.36
2023-11-07T05:06:29.115Z,8.31
2023-11-07T05:08:55.852Z,8.32
2023-11-07T05:11:22.587Z,8.30
2023-11-07T05:13:49.444Z,8.27
2023-11-07T05:16:15.912Z,8.23
2023-11-07T05:18:42.547Z,8.22
2023-11-07T05:21:09.457Z,8.25
2023-11-07T05:23:36.902Z,8.25
2023-11-07T05:26:04.895Z,8.25
2023-11-07T05:28:31.372Z,8.24
2023-11-07T05:30:58.064Z,8.28
2023-11-07T05:33:24.606Z,8.26
2023-11-07T05:35:51.144Z,8.27
2023-11-07T05:38:17.702Z,8.26
2023-11-07T05:40:44.323Z,8.21
2023-11-07T05:43:10.704Z,8.18
2023-11-07T05:45:37.133Z,8.19
2023-11-07T05:48:04.884Z,8.22
2023-11-07T05:50:31.812Z,8.19
2023-11-07T05:53:00.265Z,8.20
2023-11-07T05:55:27.240Z,8.25
2023-11-07T05:57:53.681Z,8.28
2023-11-07T06:00:21.594Z,8.27
2023-11-07T06:02:48.294Z,8.29
2023-11-07T06:05:15.004Z,8.29
2023-11-07T06:07:41.673Z,8.29
2023-11-07T06:10:09.004Z,8.36
2023-11-07T06:12:35.610Z,8.40
2023-11-07T06:15:02.745Z,8.33
2023-11-07T06:17:29.514Z,8.33
2023-11-07T06:19:55.963Z,8.31
2023-11-07T06:22:22.601Z,8.26
2023-11-07T06:24:49.213Z,8.22
2023-11-07T06:27:16.531Z,8.17
2023-11-07T06:29:44.387Z,8.06
2023-11-07T06:32:11.314Z,8.06
2023-11-07T06:34:38.367Z,8.06
2023-11-07T06:37:05.157Z,8.05
2023-11-07T06:39:31.509Z,7.99
2023-11-07T06:41:59.358Z,7.98
2023-11-07T06:44:27.128Z,8.05
2023-11-07T06:46:54.614Z,8.03
2023-11-07T06:49:21.183Z,8.04
2023-11-07T06:51:48.128Z,8.04
2023-11-07T06:54:15.194Z,8.09
2023-11-07T06:56:41.640Z,8.11
2023-11-07T06:59:08.255Z,8.17
2023-11-07T07:01:34.722Z,8.20
2023-11-07T07:04:01.904Z,8.22
2023-11-07T07:06:30.014Z,8.27
2023-11-07T07:08:56.541Z,8.27
2023-11-07T07:11:23.063Z,8.33
2023-11-07T07:13:49.734Z,8.35
2023-11-07T07:16:17.567Z,8.35
2023-11-07T07:18:46.501Z,8.37
2023-11-07T07:21:13.929Z,8.42
2023-11-07T07:23:43.371Z,8.46
2023-11-07T07:26:10.379Z,8.51
2023-11-07T07:28:40.068Z,8.51
2023-11-07T07:31:07.748Z,8.49
2023-11-07T07:33:38.272Z,8.51
2023-11-07T07:36:06.240Z,8.60
2023-11-07T07:38:33.344Z,8.62
2023-11-07T07:40:59.866Z,8.67
2023-11-07T07:43:28.065Z,8.64
2023-11-07T07:45:56.396Z,8.70
2023-11-07T07:48:26.243Z,8.67
2023-11-07T07:50:52.982Z,8.63
2023-11-07T07:53:22.044Z,8.70
2023-11-07T07:55:51.731Z,8.68
2023-11-07T07:58:21.908Z,8.72
2023-11-07T08:00:54.178Z,8.74
2023-11-07T08:03:29.059Z,8.81
2023-11-07T08:05:55.625Z,8.88
2023-11-07T08:08:22.207Z,8.90
2023-11-07T08:10:50.169Z,8.85
2023-11-07T08:13:18.166Z,8.86
2023-11-07T08:15:45.122Z,8.85
2023-11-07T08:18:12.035Z,8.77
2023-11-07T08:20:39.717Z,8.77
2023-11-07T08:23:06.770Z,8.91
2023-11-07T08:25:34.331Z,8.90
2023-11-07T08:28:01.186Z,8.94
2023-11-07T08:30:27.865Z,8.96
2023-11-07T08:32:54.706Z,8.96
2023-11-07T08:35:21.687Z,9.04
2023-11-07T08:37:51.361Z,8.99
2023-11-07T08:40:20.924Z,8.98
2023-11-07T08:42:49.772Z,8.98
2023-11-07T08:45:19.927Z,8.97
2023-11-07T08:47:54.689Z,8.99
2023-11-07T08:50:24.765Z,9.02
2023-11-07T08:52:51.524Z,9.07
2023-11-07T08:55:19.247Z,9.05
2023-11-07T08:57:45.905Z,9.07
2023-11-07T09:00:14.979Z,9.10
2023-11-07T09:02:43.711Z,9.13
2023-11-07T09:05:10.412Z,9.18
2023-11-07T09:07:37.152Z,9.20
2023-11-07T09:10:03.848Z,9.25
2023-11-07T09:12:30.552Z,9.25
2023-11-07T09:14:57.295Z,9.28
2023-11-07T09:17:23.998Z,9.28
2023-11-07T09:19:50.781Z,9.33
2023-11-07T09:22:17.167Z,9.30
2023-11-07T09:24:45.094Z,9.28
2023-11-07T09:27:11.754Z,9.31
2023-11-07T09:29:41.143Z,9.31
2023-11-07T09:32:08.806Z,9.35
2023-11-07T09:34:41.191Z,9.43
2023-11-07T09:37:08.815Z,9.40
2023-11-07T09:39:35.605Z,9.41
2023-11-07T09:42:03.237Z,9.46
2023-11-07T09:44:29.858Z,9.41
2023-11-07T09:46:58.819Z,9.42
2023-11-07T09:49:25.411Z,9.44
2023-11-07T09:51:55.265Z,9.47
2023-11-07T09:54:25.902Z,9.53
2023-11-07T09:56:53.903Z,9.55
2023-11-07T09:59:38.025Z,9.56
2023-11-07T10:02:08.220Z,9.67
2023-11-07T10:04:38.823Z,9.65
2023-11-07T10:07:05.452Z,9.66
2023-11-07T10:09:32.805Z,9.69
2023-11-07T10:12:01.110Z,9.75
2023-11-07T10:14:28.818Z,9.77
2023-11-07T10:16:59.647Z,9.72
2023-11-07T10:19:27.153Z,9.75
2023-11-07T10:21:54.057Z,9.78
2023-11-07T10:24:21.407Z,9.75
2023-11-07T10:27:00.544Z,9.88
2023-11-07T10:29:29.301Z,9.86
2023-11-07T10:32:10.942Z,9.82
2023-11-07T10:34:37.782Z,9.69
2023-11-07T10:37:06.509Z,9.72
2023-11-07T10:39:34.301Z,9.76
2023-11-07T10:42:18.818Z,9.87
2023-11-07T10:44:46.736Z,9.90
2023-11-07T10:47:14.356Z,9.98
2023-11-07T10:49:45.045Z,10.02
2023-11-07T10:52:11.456Z,10.16
2023-11-07T10:54:39.280Z,10.19
2023-11-07T10:57:10.235Z,10.26
2023-11-07T10:59:41.672Z,10.22
2023-11-07T11:02:09.668Z,10.21
2023-11-07T11:04:39.220Z,10.20
2023-11-07T11:07:08.550Z,10.25
2023-11-07T11:09:36.382Z,10.38
2023-11-07T11:12:04.814Z,10.49
2023-11-07T11:14:31.479Z,10.57
2023-11-07T11:17:27.276Z,10.58
2023-11-07T11:20:23.952Z,10.53
2023-11-07T11:23:07.705Z,10.37
2023-11-07T11:25:42.986Z,10.26
2023-11-07T11:28:09.388Z,10.22
2023-11-07T11:30:41.246Z,10.23
2023-11-07T11:33:12.486Z,10.22
2023-11-07T11:35:42.016Z,10.30
2023-11-07T11:38:24.950Z,10.39
2023-11-07T11:41:00.621Z,10.30
2023-11-07T11:43:35.300Z,10.32
2023-11-07T11:46:18.244Z,10.30
2023-11-07T11:48:50.599Z,10.45
2023-11-07T11:51:40.298Z,10.53
2023-11-07T11:54:07.903Z,10.56
2023-11-07T11:56:35.716Z,10.61
2023-11-07T11:59:11.943Z,10.58
2023-11-07T12:02:04.017Z,10.67
2023-11-07T12:04:34.301Z,10.76
2023-11-07T12:07:07.571Z,10.69
2023-11-07T12:09:35.135Z,10.58
2023-11-07T12:12:02.285Z,10.62
2023-11-07T12:14:34.219Z,10.61
2023-11-07T12:17:01.700Z,10.58
2023-11-07T12:19:31.076Z,10.71
2023-11-07T12:21:58.844Z,10.72
2023-11-07T12:24:26.072Z,10.65
2023-11-07T12:26:53.369Z,10.61
2023-11-07T12:29:30.244Z,10.54
2023-11-07T12:31:56.795Z,10.53
2023-11-07T12:34:37.995Z,10.59
2023-11-07T12:37:14.221Z,10.53
2023-11-07T12:39:42.698Z,10.46
2023-11-07T12:42:09.910Z,10.41
2023-11-07T12:44:37.313Z,10.39
2023-11-07T12:47:07.091Z,10.46
2023-11-07T12:49:38.310Z,10.48
2023-11-07T12:52:14.244Z,10.55
2023-11-07T12:54:41.372Z,10.59
2023-11-07T12:57:09.803Z,10.56
2023-11-07T12:59:36.576Z,10.47
2023-11-07T13:02:04.629Z,10.51
2023-11-07T13:04:31.104Z,10.58
2023-11-07T13:06:59.518Z,10.61
2023-11-07T13:09:32.612Z,10.59
2023-11-07T13:12:16.420Z,10.68
2023-11-07T13:14:43.678Z,10.65
2023-11-07T13:17:12.452Z,10.58
2023-11-07T13:19:41.794Z,10.51
2023-11-07T13:22:12.611Z,10.47
2023-11-07T13:24:39.231Z,10.43
2023-11-07T13:27:06.452Z,10.40
2023-11-07T13:29:32.882Z,10.29
2023-11-07T13:31:59.219Z,10.35
2023-11-07T13:34:27.528Z,10.31
2023-11-07T13:36:55.899Z,10.26
2023-11-07T13:39:25.589Z,10.22
2023-11-07T13:41:53.159Z,10.22
2023-11-07T13:44:19.569Z,10.10
2023-11-07T13:46:46.015Z,10.06
2023-11-07T13:49:12.571Z,9.87
2023-11-07T13:51:40.673Z,9.89
2023-11-07T13:54:09.360Z,9.81
2023-11-07T13:56:36.105Z,9.65
2023-11-07T13:59:04.734Z,9.65
2023-11-07T14:01:31.255Z,9.61
2023-11-07T14:03:58.822Z,9.48
2023-11-07T14:06:25.886Z,9.51
2023-11-07T14:08:52.329Z,9.46
2023-11-07T14:11:19.006Z,9.47
2023-11-07T14:13:48.233Z,9.42
2023-11-07T14:16:16.160Z,9.34
2023-11-07T14:18:44.673Z,9.28
2023-11-07T14:21:13.912Z,9.26
2023-11-07T14:24:12.542Z,9.27
2023-11-07T14:26:39.251Z,9.21
2023-11-07T14:29:26.752Z,9.06
2023-11-07T14:31:56.645Z,9.05
2023-11-07T14:34:23.242Z,8.98
2023-11-07T14:36:51.042Z,8.99
2023-11-07T14:39:17.811Z,9.03
2023-11-07T14:41:46.184Z,8.88
2023-11-07T14:44:13.022Z,8.91
2023-11-07T14:46:41.483Z,8.94
2023-11-07T14:49:09.361Z,8.93
2023-11-07T14:51:36.614Z,8.99
2023-11-07T14:54:03.104Z,9.05
2023-11-07T14:56:30.142Z,9.07
2023-11-07T14:58:56.457Z,9.01
2023-11-07T15:01:23.674Z,9.02
2023-11-07T15:03:50.134Z,9.02
2023-11-07T15:06:17.443Z,9.01
2023-11-07T15:08:44.135Z,8.97
2023-11-07T15:11:10.520Z,9.01
2023-11-07T15:13:36.870Z,8.99
2023-11-07T15:16:03.558Z,9.00
2023-11-07T15:18:31.740Z,8.87
2023-11-07T15:20:58.555Z,8.82
2023-11-07T15:23:24.976Z,8.72
2023-11-07T15:25:51.366Z,8.65
2023-11-07T15:28:17.721Z,8.64
2023-11-07T15:30:44.085Z,8.56
2023-11-07T15:33:10.604Z,8.45
2023-11-07T15:35:38.563Z,8.51
2023-11-07T15:38:09.047Z,8.50
2023-11-07T15:40:37.152Z,8.49
2023-11-07T15:43:07.326Z,8.54
2023-11-07T15:45:35.205Z,8.54
2023-11-07T15:48:03.078Z,8.51
2023-11-07T15:50:29.542Z,8.55
2023-11-07T15:53:06.573Z,8.50
2023-11-07T15:55:38.082Z,8.57
2023-11-07T15:58:04.893Z,8.66
2023-11-07T16:00:31.609Z,8.65
2023-11-07T16:02:58.247Z,8.61
2023-11-07T16:05:28.230Z,8.60
2023-11-07T16:07:54.834Z,8.58
2023-11-07T16:10:21.445Z,8.52
2023-11-07T16:12:47.820Z,8.44
2023-11-07T16:15:15.843Z,8.40
2023-11-07T16:17:48.718Z,8.44
2023-11-07T16:20:21.750Z,8.45
2023-11-07T16:22:48.904Z,8.51
2023-11-07T16:25:16.766Z,8.57
2023-11-07T16:27:43.741Z,8.59
2023-11-07T16:30:10.749Z,8.48
2023-11-07T16:32:37.976Z,8.49
2023-11-07T16:35:07.677Z,8.48
2023-11-07T16:37:36.957Z,8.49
2023-11-07T16:40:09.258Z,8.51
2023-11-07T16:42:37.361Z,8.45
2023-11-07T16:45:05.774Z,8.39
2023-11-07T16:47:33.093Z,8.44
2023-11-07T16:49:59.970Z,8.44
2023-11-07T16:52:26.413Z,8.45
2023-11-07T16:54:54.275Z,8.52
2023-11-07T16:57:21.388Z,8.49
2023-11-07T16:59:48.461Z,8.48
2023-11-07T17:02:16.382Z,8.44
2023-11-07T17:04:46.198Z,8.38
2023-11-07T17:07:13.820Z,8.41
2023-11-07T17:09:40.830Z,8.40
2023-11-07T17:12:08.161Z,8.36
2023-11-07T17:14:34.872Z,8.26
2023-11-07T17:17:01.377Z,8.22
2023-11-07T17:19:27.964Z,8.23
2023-11-07T17:21:56.951Z,8.31
2023-11-07T17:24:26.627Z,8.39
2023-11-07T17:26:54.881Z,8.34
2023-11-07T17:29:22.425Z,8.32
2023-11-07T17:31:50.117Z,8.31
2023-11-07T17:34:18.332Z,8.30
2023-11-07T17:36:47.923Z,8.34
2023-11-07T17:39:20.707Z,8.38
2023-11-07T17:41:47.594Z,8.44
2023-11-07T17:44:18.752Z,8.41
2023-11-07T17:46:46.035Z,8.44
2023-11-07T17:49:13.047Z,8.40
2023-11-07T17:51:39.802Z,8.38
2023-11-07T17:54:09.487Z,8.37
2023-11-07T17:56:37.272Z,8.35
2023-11-07T17:59:04.582Z,8.40
2023-11-07T18:01:31.260Z,8.44
2023-11-07T18:03:57.827Z,8.39
2023-11-07T18:06:28.210Z,8.44
2023-11-07T18:08:55.137Z,8.38
2023-11-07T18:11:34.463Z,8.35
2023-11-07T18:14:01.626Z,8.37
2023-11-07T18:16:28.623Z,8.32
2023-11-07T18:18:58.402Z,8.29
2023-11-07T18:21:27.221Z,8.28
2023-11-07T18:23:54.185Z,8.31
2023-11-07T18:26:22.884Z,8.34
2023-11-07T18:28:50.519Z,8.41
2023-11-07T18:31:20.154Z,8.34
2023-11-07T18:33:49.264Z,8.28
2023-11-07T18:36:18.165Z,8.25
2023-11-07T18:38:44.955Z,8.25
2023-11-07T18:41:11.988Z,8.08
2023-11-07T18:43:38.427Z,8.05
2023-11-07T18:46:06.514Z,7.95
2023-11-07T18:48:34.260Z,7.89
2023-11-07T18:51:00.931Z,7.76
2023-11-07T18:53:37.004Z,7.79
2023-11-07T18:56:11.659Z,7.72
2023-11-07T18:58:38.632Z,7.66
2023-11-07T19:01:05.103Z,7.63
2023-11-07T19:03:31.654Z,7.52
2023-11-07T19:05:58.290Z,7.42
2023-11-07T19:08:24.856Z,7.46
2023-11-07T19:10:53.108Z,7.44
2023-11-07T19:13:19.492Z,7.39
2023-11-07T19:15:46.083Z,7.34
2023-11-07T19:18:14.933Z,7.23
2023-11-07T19:20:42.746Z,7.25
2023-11-07T19:23:10.172Z,7.19
2023-11-07T19:25:37.786Z,7.17
2023-11-07T19:28:04.579Z,7.10
2023-11-07T19:30:31.064Z,7.09
2023-11-07T19:32:57.481Z,7.10
2023-11-07T19:35:24.477Z,7.17
2023-11-07T19:37:52.602Z,7.15
2023-11-07T19:40:23.280Z,7.17
2023-11-07T19:42:50.752Z,7.20
2023-11-07T19:45:17.335Z,7.16
2023-11-07T19:47:44.215Z,7.21
2023-11-07T19:50:11.240Z,7.18
2023-11-07T19:52:37.920Z,7.14
2023-11-07T19:55:04.626Z,7.15
2023-11-07T19:57:31.159Z,7.04
2023-11-07T19:59:57.550Z,6.99
2023-11-07T20:02:24.005Z,6.90
2023-11-07T20:04:52.952Z,6.94
2023-11-07T20:07:19.464Z,6.88
2023-11-07T20:09:47.234Z,6.93
2023-11-07T20:12:13.843Z,6.94
2023-11-07T20:14:40.297Z,7.01
2023-11-07T20:17:06.880Z,7.04
2023-11-07T20:19:33.744Z,7.04
2023-11-07T20:22:00.221Z,7.06
2023-11-07T20:24:26.599Z,7.01
2023-11-07T20:26:53.788Z,7.07
2023-11-07T20:29:22.079Z,7.09
2023-11-07T20:31:49.643Z,7.04
2023-11-07T20:34:16.027Z,7.13
2023-11-07T20:36:43.203Z,7.21
2023-11-07T20:39:10.048Z,7.10
2023-11-07T20:41:37.435Z,7.06
2023-11-07T20:44:03.926Z,7.06
2023-11-07T20:46:34.353Z,7.08
2023-11-07T20:49:06.053Z,7.03
2023-11-07T20:51:33.364Z,7.08
2023-11-07T20:53:59.793Z,6.98
2023-11-07T20:56:29.052Z,6.99
2023-11-07T20:58:55.951Z,6.98
2023-11-07T21:01:22.767Z,6.96
2023-11-07T21:03:50.922Z,6.95
2023-11-07T21:06:17.571Z,6.94
2023-11-07T21:08:44.826Z,6.97
2023-11-07T21:11:13.650Z,6.91
2023-11-07T21:13:40.104Z,6.79
2023-11-07T21:16:08.421Z,6.82
2023-11-07T21:18:35.608Z,6.81
2023-11-07T21:21:02.428Z,6.87
2023-11-07T21:23:29.146Z,6.86
2023-11-07T21:25:55.528Z,6.79
2023-11-07T21:28:22.034Z,6.76
2023-11-07T21:30:48.777Z,6.76
2023-11-07T21:33:16.640Z,6.74
2023-11-07T21:35:43.918Z,6.68
2023-11-07T21:38:10.680Z,6.63
2023-11-07T21:40:40.551Z,6.58
2023-11-07T21:43:07.781Z,6.61
2023-11-07T21:45:34.308Z,6.64
2023-11-07T21:48:00.985Z,6.70
2023-11-07T21:50:28.110Z,6.73
2023-11-07T21:52:54.981Z,6.73
2023-11-07T21:55:22.175Z,6.80
2023-11-07T21:57:49.009Z,6.82
2023-11-07T22:00:16.472Z,6.79
2023-11-07T22:02:44.653Z,6.81
2023-11-07T22:05:16.159Z,6.73
2023-11-07T22:07:43.688Z,6.71
2023-11-07T22:10:14.986Z,6.73
2023-11-07T22:12:45.022Z,6.71
2023-11-07T22:15:14.800Z,6.64
2023-11-07T22:17:45.075Z,6.65
2023-11-07T22:20:15.217Z,6.64
2023-11-07T22:22:43.747Z,6.70
2023-11-07T22:25:10.467Z,6.67
2023-11-07T22:27:37.652Z,6.66
2023-11-07T22:30:10.071Z,6.66
2023-11-07T22:32:38.382Z,6.67
2023-11-07T22:35:05.730Z,6.65
2023-11-07T22:37:32.458Z,6.56
2023-11-07T22:39:58.826Z,6.60
2023-11-07T22:42:25.543Z,6.66
2023-11-07T22:44:52.413Z,6.68
2023-11-07T22:47:18.905Z,6.65
2023-11-07T22:49:45.383Z,6.74
2023-11-07T22:52:14.602Z,6.79
2023-11-07T22:54:41.418Z,6.76
2023-11-07T22:57:08.030Z,6.75
2023-11-07T22:59:38.980Z,6.82
2023-11-07T23:02:05.731Z,6.77
2023-11-07T23:04:33.413Z,6.82
2023-11-07T23:07:00.195Z,6.84
2023-11-07T23:09:27.141Z,6.88
2023-11-07T23:11:54.040Z,6.88
2023-11-07T23:14:23.631Z,6.95
2023-11-07T23:16:51.805Z,6.97
2023-11-07T23:19:18.272Z,7.01
2023-11-07T23:21:44.954Z,7.04
2023-11-07T23:24:11.420Z,7.05
2023-11-07T23:26:42.041Z,7.13
2023-11-07T23:29:14.619Z,7.15
2023-11-07T23:31:40.973Z,7.21
2023-11-07T23:34:07.678Z,7.26
2023-11-07T23:36:34.516Z,7.25
2023-11-07T23:39:00.911Z,7.20
2023-11-07T23:41:27.497Z,7.14
2023-11-07T23:43:53.867Z,7.14
2023-11-07T23:46:20.242Z,7.19
2023-11-07T23:48:46.895Z,7.22
2023-11-07T23:51:13.356Z,7.18
2023-11-07T23:53:39.891Z,7.23
2023-11-07T23:56:06.626Z,7.24
2023-11-07T23:58:32.997Z,7.22
